Aeroporto :
LOGIN :

Iscrizione | Disclaimer

   EN    FR    IT 

 










Sommario :    VFR   VFR Marginale   IFR   IFR Intensivo   IFR Molto Intensivo
Visibilità : 
Base nubi : 
>= 8 km
>= 3000ft
5 / 8 km
1000 / 3000 ft
1500m / 5 km
500 / 1000 ft
800 / 1500m
200 / 500 ft
< 800m
< 200 ft
Simboli :   Temporali  Nebbia  Neve Forte  Precipitazioni Forti  Vento > 20 kt
SIGMETs :   Varie  Temporali  Ghiacco  Turbolenza  Onda orograficha  Ceneri Vulcaniche







- Altitudine del aeroporto : 202 ft
- Codice IATA : LGW
- Carte del aeroporto


EGKK - London Gatwick

ULTIMO METAR :
  • 161150Z 22013KT 9999 FEW006 BKN010 16/14 Q1017

METARs OBSOLETI :
  • 161120Z 22010KT 9000 VCSH SCT007 BKN011 15/14 Q1017
  • 161050Z 21011KT 190V250 9999 VCSH SCT007 BKN010 16/15 Q1017
  • 161020Z 21010G20KT 5000 -RADZ SCT006 BKN010 15/14 Q1017
  • 160950Z 20010KT 160V220 5000 -SHRA BKN008 BKN013 15/14 Q1017
  • 160920Z 20009KT 160V230 6000 -SHRA SCT007 BKN011 14/13 Q1017

TAF TAF EGKK
Valido dal 16 a 12 ore il 17 a 18 ore UTC


161058Z 1612/1718 20012KT 9999 SCT025
TEMPO 1612/1615 BKN010
PROB30
TEMPO 1612/1615 22015G25KT 7000 -SHRA BKN007
Nessun NOTAM noto per questo aeroporto.



MetMap, La meteo Aeronautica in un colpo d'occhio ! - Copyright ORBIFLY Dicembre 2007 - Disclaimer

ORBIFLY MET'MAP TEAM :

Programmazione e sviluppo : Alexandra Zaïnal
Concezione e sviluppo : Baudouin d'Aumeries
Co-Programmazione e sviluppo : Marc-Olivier Méhu
Supporto tecnico e logistico : Manuel Goepfert
Aiuto per la traduzione : Arnaldo La Scala

Contatto : metmap@orbifly.com




FONTI E CREDITI :

   NOAA